Time;durP1;ratioP1;P1;durP2;ratioP2;P2;SDS_P1;SDS_P2;PMS_P1;PMS_P2;Temp;Humidity;BMP_temperature;BMP_pressure;BME280_temperature;BME280_humidity;BME280_pressure;Samples;Min_cycle;Max_cycle;Signal;HPM_P1;HPM_P2
2022/05/12 00:02:03;;;;;;;4.10;0.88;;;;;;;;;;5051920;28;20045;-85
2022/05/12 00:04:30;;;;;;;4.22;0.88;;;;;;;;;;5069429;28;20062;-83
2022/05/12 00:06:56;;;;;;;3.92;1.23;;;;;;;;;;5051495;28;20036;-84
2022/05/12 00:09:23;;;;;;;2.67;0.70;;;;;;;;;;5052159;28;20048;-80
2022/05/12 00:11:49;;;;;;;3.40;0.77;;;;;;;;;;5052268;28;20094;-84
2022/05/12 00:14:15;;;;;;;1.83;1.00;;;;;;;;;;5051902;28;20044;-88
2022/05/12 00:16:41;;;;;;;2.35;0.63;;;;;;;;;;5051836;28;20047;-87
2022/05/12 00:19:07;;;;;;;2.50;0.70;;;;;;;;;;5068858;28;20131;-85
2022/05/12 00:21:34;;;;;;;3.70;0.82;;;;;;;;;;5051624;28;20119;-83
2022/05/12 00:24:00;;;;;;;3.17;0.98;;;;;;;;;;5068924;28;20053;-89
2022/05/12 00:26:27;;;;;;;1.58;1.00;;;;;;;;;;5068310;28;20032;-86
2022/05/12 00:28:53;;;;;;;3.10;0.80;;;;;;;;;;5051745;28;20048;-83
2022/05/12 00:31:20;;;;;;;2.65;0.70;;;;;;;;;;5051308;28;20065;-83
2022/05/12 00:33:46;;;;;;;1.10;0.57;;;;;;;;;;5053245;28;20433;-84
2022/05/12 00:36:12;;;;;;;2.40;0.60;;;;;;;;;;5054890;28;20040;-83
2022/05/12 00:38:38;;;;;;;1.10;0.57;;;;;;;;;;5055307;28;20123;-80
2022/05/12 00:41:04;;;;;;;0.45;0.30;;;;;;;;;;5055108;28;20190;-84
2022/05/12 00:43:33;;;;;;;3.08;0.75;;;;;;;;;;5055174;28;20032;-86
2022/05/12 00:45:59;;;;;;;1.63;0.55;;;;;;;;;;5069034;28;20143;-80
2022/05/12 00:48:26;;;;;;;0.63;0.57;;;;;;;;;;5054721;28;20072;-82
2022/05/12 00:50:52;;;;;;;2.90;0.80;;;;;;;;;;5055122;28;20086;-87
2022/05/12 00:53:19;;;;;;;8.48;2.40;;;;;;;;;;5055341;28;20036;-85
2022/05/12 00:55:45;;;;;;;2.28;0.85;;;;;;;;;;5055016;28;20444;-82
2022/05/12 00:58:13;;;;;;;3.60;0.65;;;;;;;;;;5071430;28;20041;-84
2022/05/12 01:00:39;;;;;;;1.70;0.85;;;;;;;;;;5054732;28;20044;-85
2022/05/12 01:03:08;;;;;;;2.65;0.90;;;;;;;;;;5055083;28;20400;-84
2022/05/12 01:05:34;;;;;;;3.83;1.42;;;;;;;;;;5054925;28;20595;-82
2022/05/12 01:08:00;;;;;;;0.85;0.57;;;;;;;;;;5055120;28;20044;-82
2022/05/12 01:10:29;;;;;;;3.35;0.70;;;;;;;;;;5071337;28;20089;-83
2022/05/12 01:12:55;;;;;;;3.70;0.88;;;;;;;;;;5071526;28;20080;-82
2022/05/12 01:15:24;;;;;;;1.13;0.60;;;;;;;;;;5071130;28;20101;-81
2022/05/12 01:17:50;;;;;;;1.73;0.80;;;;;;;;;;5054711;28;20492;-82
2022/05/12 01:20:16;;;;;;;2.03;0.70;;;;;;;;;;5054387;28;20040;-83
2022/05/12 01:22:48;;;;;;;0.95;0.60;;;;;;;;;;5070978;28;20511;-86
2022/05/12 01:25:16;;;;;;;6.60;1.67;;;;;;;;;;5054628;28;20043;-85
2022/05/12 01:27:42;;;;;;;1.30;0.57;;;;;;;;;;5054273;28;20043;-87
2022/05/12 01:30:09;;;;;;;4.00;0.82;;;;;;;;;;5054262;28;20032;-85
2022/05/12 01:32:35;;;;;;;0.70;0.68;;;;;;;;;;5054064;28;20109;-84
2022/05/12 01:35:01;;;;;;;0.70;0.60;;;;;;;;;;5054445;28;20054;-83
2022/05/12 01:37:28;;;;;;;2.80;0.60;;;;;;;;;;5071196;28;20070;-83
2022/05/12 01:39:53;;;;;;;0.93;0.60;;;;;;;;;;5054389;28;20040;-83
2022/05/12 01:42:19;;;;;;;1.75;0.70;;;;;;;;;;5054013;28;20094;-83
2022/05/12 01:44:45;;;;;;;2.00;1.08;;;;;;;;;;5053718;28;20043;-83
2022/05/12 01:47:12;;;;;;;3.33;0.82;;;;;;;;;;5053975;28;20045;-86
2022/05/12 01:49:39;;;;;;;0.47;0.45;;;;;;;;;;5054009;28;20041;-88
2022/05/12 01:52:05;;;;;;;2.20;0.88;;;;;;;;;;5054107;28;20044;-79
2022/05/12 01:54:31;;;;;;;1.42;0.75;;;;;;;;;;5070942;28;20518;-85
2022/05/12 01:56:58;;;;;;;1.40;0.88;;;;;;;;;;5053914;28;20048;-83
2022/05/12 01:59:24;;;;;;;1.73;0.70;;;;;;;;;;5053817;28;20071;-80
2022/05/12 02:01:50;;;;;;;0.88;0.60;;;;;;;;;;5054000;28;20141;-82
2022/05/12 02:04:17;;;;;;;3.40;1.08;;;;;;;;;;5054211;28;20037;-81
2022/05/12 02:06:44;;;;;;;1.02;0.70;;;;;;;;;;5070030;28;20415;-83
2022/05/12 02:09:10;;;;;;;3.75;0.73;;;;;;;;;;5054134;28;20043;-83
2022/05/12 02:11:36;;;;;;;2.08;0.80;;;;;;;;;;5054017;28;20036;-84
2022/05/12 02:14:02;;;;;;;1.77;0.80;;;;;;;;;;5053854;28;20043;-86
2022/05/12 02:16:30;;;;;;;4.30;1.38;;;;;;;;;;5054032;28;20511;-83
2022/05/12 02:18:56;;;;;;;3.70;1.00;;;;;;;;;;5053563;28;20041;-82
2022/05/12 02:21:22;;;;;;;1.88;0.98;;;;;;;;;;5070669;28;20113;-84
2022/05/12 02:23:48;;;;;;;2.50;0.98;;;;;;;;;;5053937;28;20508;-82
2022/05/12 02:26:15;;;;;;;1.90;1.08;;;;;;;;;;5053817;28;20438;-82
2022/05/12 02:28:41;;;;;;;4.05;1.80;;;;;;;;;;5053641;28;20427;-85
2022/05/12 02:31:07;;;;;;;2.83;0.82;;;;;;;;;;5070190;28;20036;-86
2022/05/12 02:33:34;;;;;;;2.05;1.17;;;;;;;;;;5070437;28;20511;-84
2022/05/12 02:36:02;;;;;;;1.77;0.98;;;;;;;;;;5070515;28;20100;-84
2022/05/12 02:38:28;;;;;;;1.73;0.98;;;;;;;;;;5053616;28;20524;-82
2022/05/12 02:40:54;;;;;;;2.25;1.00;;;;;;;;;;5070240;28;20136;-83
2022/05/12 02:43:23;;;;;;;4.85;0.90;;;;;;;;;;5053338;28;20033;-82
2022/05/12 02:45:50;;;;;;;4.68;1.35;;;;;;;;;;5069879;28;20100;-82
2022/05/12 02:48:17;;;;;;;3.85;1.10;;;;;;;;;;5070171;28;20072;-83
2022/05/12 02:50:43;;;;;;;2.97;1.20;;;;;;;;;;5053714;28;20135;-84
2022/05/12 02:53:09;;;;;;;5.47;1.50;;;;;;;;;;5070037;28;20076;-83
2022/05/12 02:55:35;;;;;;;4.35;1.45;;;;;;;;;;5070265;28;20171;-81
2022/05/12 02:58:01;;;;;;;2.65;1.05;;;;;;;;;;5070252;28;20447;-83
2022/05/12 03:00:27;;;;;;;3.38;1.10;;;;;;;;;;5070191;28;20131;-82
2022/05/12 03:02:53;;;;;;;1.65;1.30;;;;;;;;;;5053477;28;20047;-87
2022/05/12 03:05:19;;;;;;;5.57;1.20;;;;;;;;;;5053259;28;20177;-82
2022/05/12 03:07:45;;;;;;;3.58;1.48;;;;;;;;;;5069906;28;20045;-83
2022/05/12 03:10:12;;;;;;;3.03;1.65;;;;;;;;;;5070214;28;20512;-85
2022/05/12 03:12:38;;;;;;;3.20;1.30;;;;;;;;;;5069866;28;20066;-84
2022/05/12 03:15:04;;;;;;;4.05;1.35;;;;;;;;;;5053480;28;20127;-83
2022/05/12 03:17:31;;;;;;;2.53;1.30;;;;;;;;;;5053221;28;20036;-82
2022/05/12 03:19:56;;;;;;;3.25;1.40;;;;;;;;;;5056257;28;20052;-79
2022/05/12 03:22:22;;;;;;;4.40;1.48;;;;;;;;;;5056917;28;20565;-84
2022/05/12 03:24:48;;;;;;;6.38;2.05;;;;;;;;;;5056934;28;20066;-80
2022/05/12 03:27:15;;;;;;;3.45;1.90;;;;;;;;;;5056816;28;20392;-81
2022/05/12 03:29:41;;;;;;;3.80;1.55;;;;;;;;;;5057114;28;20032;-86
2022/05/12 03:32:10;;;;;;;1.85;1.40;;;;;;;;;;5056768;28;20086;-85
2022/05/12 03:34:37;;;;;;;3.45;1.40;;;;;;;;;;5073178;28;20040;-80
2022/05/12 03:37:03;;;;;;;3.88;1.65;;;;;;;;;;5056415;28;20044;-83
2022/05/12 03:39:29;;;;;;;3.58;1.63;;;;;;;;;;5056546;28;20174;-83
2022/05/12 03:41:55;;;;;;;2.55;1.40;;;;;;;;;;5056385;28;20119;-84
2022/05/12 03:47:06;;;;;;;5.70;1.50;;;;;;;;;;5072968;28;20090;-82
2022/05/12 03:49:32;;;;;;;3.35;1.60;;;;;;;;;;5056299;28;20072;-83
2022/05/12 03:51:58;;;;;;;3.50;1.73;;;;;;;;;;5073196;28;20086;-81
2022/05/12 03:54:24;;;;;;;4.30;2.60;;;;;;;;;;5056320;28;20411;-83
2022/05/12 03:56:50;;;;;;;3.15;1.80;;;;;;;;;;5073327;28;20044;-81
2022/05/12 03:59:16;;;;;;;3.72;1.77;;;;;;;;;;5056684;28;20051;-85
2022/05/12 04:01:42;;;;;;;5.93;1.85;;;;;;;;;;5056093;28;20190;-82
2022/05/12 04:04:09;;;;;;;5.78;2.45;;;;;;;;;;5072707;28;20044;-81
2022/05/12 04:06:36;;;;;;;5.38;1.77;;;;;;;;;;5055992;28;20041;-83
2022/05/12 04:09:02;;;;;;;3.92;1.73;;;;;;;;;;5072980;28;20484;-80
2022/05/12 04:11:28;;;;;;;4.47;2.03;;;;;;;;;;5072381;28;20098;-81
2022/05/12 04:13:53;;;;;;;6.95;2.45;;;;;;;;;;5056028;28;20377;-80
2022/05/12 04:16:20;;;;;;;5.60;2.30;;;;;;;;;;5056072;28;20047;-81
2022/05/12 04:18:46;;;;;;;4.13;1.85;;;;;;;;;;5072328;28;20471;-83
2022/05/12 04:21:11;;;;;;;5.13;2.10;;;;;;;;;;5055764;28;20043;-83
2022/05/12 04:23:38;;;;;;;7.28;2.22;;;;;;;;;;5072507;28;20041;-84
2022/05/12 04:26:04;;;;;;;3.17;1.70;;;;;;;;;;5072693;28;20101;-86
2022/05/12 04:28:30;;;;;;;4.95;1.80;;;;;;;;;;5055994;28;20037;-88
2022/05/12 04:30:56;;;;;;;3.35;1.83;;;;;;;;;;5072123;28;20053;-82
2022/05/12 04:36:07;;;;;;;5.60;2.30;;;;;;;;;;5072106;28;20500;-86
2022/05/12 04:38:34;;;;;;;4.85;2.13;;;;;;;;;;5055350;28;20082;-85
2022/05/12 04:41:00;;;;;;;5.95;1.95;;;;;;;;;;5055321;28;20050;-80
2022/05/12 04:43:27;;;;;;;3.47;2.10;;;;;;;;;;5055278;28;20036;-80
2022/05/12 04:45:53;;;;;;;3.92;2.20;;;;;;;;;;5071527;28;20389;-83
2022/05/12 04:48:19;;;;;;;5.68;2.10;;;;;;;;;;5055001;28;20078;-83
2022/05/12 04:50:45;;;;;;;6.70;2.00;;;;;;;;;;5055439;28;20133;-80
2022/05/12 04:53:11;;;;;;;6.85;2.42;;;;;;;;;;5054829;28;20042;-86
2022/05/12 04:55:38;;;;;;;4.25;2.45;;;;;;;;;;5071472;28;20079;-85
2022/05/12 04:58:04;;;;;;;4.45;1.88;;;;;;;;;;5054720;28;20048;-82
2022/05/12 05:00:32;;;;;;;11.48;2.58;;;;;;;;;;5054708;28;20036;-84
2022/05/12 05:02:58;;;;;;;6.43;1.55;;;;;;;;;;5055132;28;20040;-82
2022/05/12 05:05:24;;;;;;;3.78;1.95;;;;;;;;;;5054644;28;20051;-82
2022/05/12 05:07:50;;;;;;;3.15;1.65;;;;;;;;;;5054684;28;20041;-84
2022/05/12 05:10:16;;;;;;;3.28;1.58;;;;;;;;;;5054550;28;20032;-85
2022/05/12 05:12:43;;;;;;;4.05;2.08;;;;;;;;;;5054971;28;20504;-83
2022/05/12 05:15:10;;;;;;;3.75;1.58;;;;;;;;;;5071173;28;20404;-81
2022/05/12 05:17:36;;;;;;;5.30;2.05;;;;;;;;;;5071160;28;20094;-83
2022/05/12 05:20:07;;;;;;;3.67;2.08;;;;;;;;;;5054117;28;20143;-82
2022/05/12 05:22:33;;;;;;;;;;;;;;;;;;5071364;28;20127;-80
2022/05/12 05:24:59;;;;;;;6.05;2.20;;;;;;;;;;5054254;28;20003;-83
2022/05/12 05:27:25;;;;;;;6.47;2.42;;;;;;;;;;5071116;28;20563;-82
2022/05/12 05:29:52;;;;;;;2.92;2.10;;;;;;;;;;5070864;28;20038;-82
2022/05/12 05:32:18;;;;;;;2.63;2.13;;;;;;;;;;5054307;28;20045;-82
2022/05/12 05:34:44;;;;;;;4.63;2.42;;;;;;;;;;5071132;28;20122;-81
2022/05/12 05:37:10;;;;;;;4.65;2.08;;;;;;;;;;5070992;28;20144;-84
2022/05/12 05:39:36;;;;;;;9.23;2.97;;;;;;;;;;5070781;28;20047;-82
2022/05/12 05:42:12;;;;;;;10.02;3.00;;;;;;;;;;5053162;28;20048;-81
2022/05/12 05:44:38;;;;;;;5.38;2.38;;;;;;;;;;5053824;28;20043;-80
2022/05/12 05:47:05;;;;;;;5.90;2.38;;;;;;;;;;5053971;28;20118;-81
2022/05/12 05:49:31;;;;;;;5.90;2.30;;;;;;;;;;5054013;28;20513;-82
2022/05/12 05:54:42;;;;;;;4.85;1.92;;;;;;;;;;5071133;28;20044;-82
2022/05/12 05:57:08;;;;;;;4.32;2.15;;;;;;;;;;5055337;28;20136;-82
2022/05/12 05:59:34;;;;;;;6.30;2.70;;;;;;;;;;5071798;28;20040;-83
2022/05/12 06:02:01;;;;;;;6.47;3.33;;;;;;;;;;5055266;28;20464;-83
2022/05/12 06:04:28;;;;;;;7.05;3.40;;;;;;;;;;5053797;28;20424;-82
2022/05/12 06:06:54;;;;;;;6.47;3.90;;;;;;;;;;5053663;28;20043;-83
2022/05/12 06:09:20;;;;;;;6.20;3.30;;;;;;;;;;5053665;28;20427;-84
2022/05/12 06:11:46;;;;;;;5.05;3.40;;;;;;;;;;5054022;28;20048;-84
2022/05/12 06:14:12;;;;;;;7.80;3.80;;;;;;;;;;5053859;28;20040;-82
2022/05/12 06:16:39;;;;;;;7.95;4.00;;;;;;;;;;5053739;28;20397;-88
2022/05/12 06:19:05;;;;;;;7.13;3.95;;;;;;;;;;5070810;28;20086;-88
2022/05/12 06:21:31;;;;;;;6.68;3.30;;;;;;;;;;5053602;28;20528;-83
2022/05/12 06:23:58;;;;;;;7.80;3.90;;;;;;;;;;5070742;28;20517;-87
2022/05/12 06:26:24;;;;;;;7.57;3.33;;;;;;;;;;5070551;28;20044;-84
2022/05/12 06:28:51;;;;;;;7.45;3.88;;;;;;;;;;5053473;28;20047;-85
2022/05/12 06:31:24;;;;;;;6.43;3.63;;;;;;;;;;5070494;28;20107;-83
2022/05/12 06:33:50;;;;;;;7.22;3.75;;;;;;;;;;5070382;28;20125;-81
2022/05/12 06:36:16;;;;;;;5.45;3.80;;;;;;;;;;5070411;28;20131;-86
2022/05/12 06:38:42;;;;;;;6.28;3.80;;;;;;;;;;5053604;28;20037;-86
2022/05/12 06:41:08;;;;;;;8.18;4.10;;;;;;;;;;5053723;28;20164;-83
2022/05/12 06:43:36;;;;;;;5.30;3.03;;;;;;;;;;5053561;28;20039;-84
2022/05/12 06:46:02;;;;;;;5.85;3.63;;;;;;;;;;5053578;28;20497;-84
2022/05/12 06:48:28;;;;;;;5.53;2.67;;;;;;;;;;5070037;28;20048;-85
2022/05/12 06:50:54;;;;;;;4.85;3.03;;;;;;;;;;5069894;28;20123;-88
2022/05/12 06:53:20;;;;;;;5.55;3.13;;;;;;;;;;5072040;28;20144;-87
2022/05/12 06:55:46;;;;;;;5.57;3.40;;;;;;;;;;5057030;28;20073;-83
2022/05/12 06:58:17;;;;;;;6.88;3.20;;;;;;;;;;5074027;28;20135;-85
2022/05/12 07:00:43;;;;;;;6.30;3.53;;;;;;;;;;5073886;28;20059;-87
2022/05/12 07:03:12;;;;;;;4.13;3.40;;;;;;;;;;5073686;28;20614;-86
2022/05/12 07:05:39;;;;;;;7.63;3.58;;;;;;;;;;5057476;28;20043;-87
2022/05/12 07:08:06;;;;;;;7.70;3.60;;;;;;;;;;5057168;28;20039;-87
2022/05/12 07:10:32;;;;;;;5.53;3.15;;;;;;;;;;5073773;28;20507;-82
2022/05/12 07:12:58;;;;;;;5.80;3.15;;;;;;;;;;5056642;28;20028;-84
2022/05/12 07:15:27;;;;;;;5.20;2.55;;;;;;;;;;5056575;28;20080;-85
2022/05/12 07:17:55;;;;;;;5.73;3.03;;;;;;;;;;5056387;28;20048;-86
2022/05/12 07:28:36;;;;;;;5.40;2.40;;;;;;;;;;5070596;28;20037;-90
2022/05/12 07:31:02;;;;;;;4.97;2.10;;;;;;;;;;5056107;28;20473;-81
2022/05/12 07:33:34;;;;;;;4.38;2.00;;;;;;;;;;5072852;28;20161;-87
2022/05/12 07:36:00;;;;;;;5.45;2.35;;;;;;;;;;5054458;28;20036;-83
2022/05/12 07:38:26;;;;;;;3.53;1.90;;;;;;;;;;5056214;28;20040;-86
2022/05/12 07:40:53;;;;;;;4.05;1.90;;;;;;;;;;5055848;28;20131;-88
2022/05/12 07:43:21;;;;;;;5.45;1.70;;;;;;;;;;5056234;28;20030;-90
2022/05/12 07:45:47;;;;;;;3.53;1.90;;;;;;;;;;5055367;28;20052;-87
2022/05/12 07:48:14;;;;;;;4.30;1.75;;;;;;;;;;5055821;28;20033;-85
2022/05/12 07:50:40;;;;;;;4.30;2.20;;;;;;;;;;5072295;28;20036;-86
2022/05/12 07:53:07;;;;;;;4.95;2.10;;;;;;;;;;5055794;28;20037;-86
2022/05/12 07:55:33;;;;;;;2.30;1.58;;;;;;;;;;5055585;28;20036;-84
2022/05/12 07:58:04;;;;;;;3.15;1.42;;;;;;;;;;5055628;28;20079;-84
2022/05/12 08:00:30;;;;;;;4.03;1.70;;;;;;;;;;5055526;28;20399;-82
2022/05/12 08:02:56;;;;;;;2.83;1.60;;;;;;;;;;5056005;28;20404;-86
2022/05/12 08:05:23;;;;;;;2.35;1.60;;;;;;;;;;5054316;28;20127;-87
2022/05/12 08:07:49;;;;;;;3.65;1.50;;;;;;;;;;5055614;28;20118;-87
2022/05/12 08:10:15;;;;;;;3.42;1.60;;;;;;;;;;5050725;28;20064;-84
2022/05/12 08:12:42;;;;;;;3.63;1.40;;;;;;;;;;5072795;28;20126;-88
2022/05/12 08:15:09;;;;;;;3.80;1.40;;;;;;;;;;5072818;28;20071;-86
2022/05/12 08:17:36;;;;;;;9.90;5.65;;;;;;;;;;5055746;28;20040;-86
2022/05/12 08:20:04;;;;;;;3.40;1.52;;;;;;;;;;5071963;28;20408;-82
2022/05/12 08:22:31;;;;;;;3.20;1.55;;;;;;;;;;5055439;28;20044;-86
2022/05/12 08:24:57;;;;;;;4.32;1.55;;;;;;;;;;5071999;28;20033;-84
2022/05/12 08:27:24;;;;;;;2.50;1.20;;;;;;;;;;5055500;28;20101;-87
2022/05/12 08:29:50;;;;;;;4.72;1.60;;;;;;;;;;5053194;28;20037;-82
2022/05/12 08:32:16;;;;;;;3.67;1.48;;;;;;;;;;5052172;28;20041;-84
2022/05/12 08:34:43;;;;;;;5.10;1.60;;;;;;;;;;5068592;28;20075;-80
2022/05/12 08:37:10;;;;;;;3.10;1.17;;;;;;;;;;5051747;28;20408;-82
2022/05/12 08:39:36;;;;;;;3.85;1.70;;;;;;;;;;5051690;28;20128;-84
2022/05/12 08:42:06;;;;;;;2.97;1.33;;;;;;;;;;5067930;28;20076;-80
2022/05/12 08:44:35;;;;;;;1.83;1.10;;;;;;;;;;5052049;28;20522;-84
2022/05/12 08:47:03;;;;;;;3.47;1.20;;;;;;;;;;5067848;28;20095;-79
2022/05/12 08:49:37;;;;;;;4.63;1.40;;;;;;;;;;5051879;28;20492;-79
2022/05/12 08:52:15;;;;;;;4.60;1.27;;;;;;;;;;5051319;28;20130;-84
2022/05/12 08:54:46;;;;;;;2.50;1.05;;;;;;;;;;5068218;28;20076;-85
2022/05/12 08:57:23;;;;;;;3.40;1.40;;;;;;;;;;5068010;28;20048;-82
2022/05/12 08:59:49;;;;;;;2.40;1.20;;;;;;;;;;5067578;28;20451;-86
2022/05/12 09:02:26;;;;;;;4.32;1.30;;;;;;;;;;5068065;28;20040;-85
2022/05/12 09:05:01;;;;;;;3.95;1.20;;;;;;;;;;5051642;28;20101;-84
2022/05/12 09:07:40;;;;;;;3.80;1.33;;;;;;;;;;5068219;28;20037;-83
2022/05/12 09:10:10;;;;;;;6.15;1.70;;;;;;;;;;5067539;28;20037;-81
2022/05/12 09:12:45;;;;;;;2.90;1.27;;;;;;;;;;5051293;28;20047;-85
2022/05/12 09:15:11;;;;;;;4.55;1.52;;;;;;;;;;5067884;28;20059;-82
2022/05/12 09:17:44;;;;;;;2.35;1.35;;;;;;;;;;5051065;28;20076;-78
2022/05/12 09:20:11;;;;;;;3.05;1.30;;;;;;;;;;5067778;28;20185;-82
2022/05/12 09:22:38;;;;;;;3.17;1.20;;;;;;;;;;5050853;28;20041;-77
2022/05/12 09:25:06;;;;;;;3.83;1.50;;;;;;;;;;5051243;28;20057;-86
2022/05/12 09:27:33;;;;;;;3.22;1.30;;;;;;;;;;5050957;28;20044;-81
2022/05/12 09:30:00;;;;;;;4.43;1.30;;;;;;;;;;5067859;28;20051;-83
2022/05/12 09:32:31;;;;;;;3.83;1.40;;;;;;;;;;5067907;28;20131;-79
2022/05/12 09:35:16;;;;;;;3.88;1.55;;;;;;;;;;5067635;28;20059;-84
2022/05/12 09:37:42;;;;;;;4.65;1.90;;;;;;;;;;5050561;28;20064;-82
2022/05/12 09:40:14;;;;;;;4.32;1.50;;;;;;;;;;5050675;28;20040;-83
2022/05/12 09:42:47;;;;;;;5.03;1.60;;;;;;;;;;5051460;28;20492;-88
2022/05/12 09:45:13;;;;;;;5.85;2.13;;;;;;;;;;5034400;28;20063;-86
2022/05/12 09:47:40;;;;;;;4.40;2.08;;;;;;;;;;5050494;28;20040;-82
2022/05/12 09:50:16;;;;;;;3.97;1.60;;;;;;;;;;5051268;28;20044;-83
2022/05/12 09:52:43;;;;;;;5.97;1.50;;;;;;;;;;5067757;28;20053;-83
2022/05/12 09:55:16;;;;;;;4.82;1.35;;;;;;;;;;5050574;28;20047;-83
2022/05/12 09:57:48;;;;;;;6.35;2.00;;;;;;;;;;5050820;28;20128;-86
2022/05/12 10:00:27;;;;;;;3.05;1.60;;;;;;;;;;5050551;28;20044;-80
2022/05/12 10:08:29;;;;;;;5.10;1.50;;;;;;;;;;5071088;28;20041;-84
2022/05/12 10:10:58;;;;;;;3.45;1.50;;;;;;;;;;5054602;28;20392;-81
2022/05/12 10:13:31;;;;;;;2.20;1.35;;;;;;;;;;5071075;28;20044;-83
2022/05/12 10:15:58;;;;;;;5.30;1.67;;;;;;;;;;5054203;28;20135;-81
2022/05/12 10:18:42;;;;;;;4.47;1.65;;;;;;;;;;5053652;28;20040;-83
2022/05/12 10:21:13;;;;;;;3.00;1.60;;;;;;;;;;5053844;28;20123;-84
2022/05/12 10:23:45;;;;;;;3.63;1.75;;;;;;;;;;5070741;28;20036;-79
2022/05/12 10:26:12;;;;;;;3.72;1.75;;;;;;;;;;5054005;28;20040;-80
2022/05/12 10:28:52;;;;;;;2.80;1.08;;;;;;;;;;5056531;28;20036;-79
2022/05/12 10:31:33;;;;;;;2.60;1.02;;;;;;;;;;5057885;28;20093;-82
2022/05/12 10:34:05;;;;;;;1.20;1.00;;;;;;;;;;5057870;28;20059;-89
2022/05/12 10:36:31;;;;;;;2.17;1.25;;;;;;;;;;5057436;28;20048;-80
2022/05/12 10:39:16;;;;;;;3.45;1.55;;;;;;;;;;5073964;28;20423;-86
2022/05/12 10:41:48;;;;;;;4.15;1.60;;;;;;;;;;5057202;28;20203;-84
2022/05/12 10:44:34;;;;;;;3.33;1.23;;;;;;;;;;5057427;28;20064;-86
2022/05/12 10:47:16;;;;;;;1.70;1.00;;;;;;;;;;5073699;28;20078;-80
2022/05/12 10:50:05;;;;;;;3.92;1.10;;;;;;;;;;5057449;28;20040;-79
2022/05/12 10:52:50;;;;;;;5.10;1.30;;;;;;;;;;5057896;28;20040;-85
2022/05/12 10:55:28;;;;;;;6.63;1.90;;;;;;;;;;5073987;28;20040;-85
2022/05/12 10:57:54;;;;;;;3.25;1.10;;;;;;;;;;5074267;28;20513;-84
2022/05/12 11:00:27;;;;;;;3.83;1.20;;;;;;;;;;5073842;28;20408;-82
2022/05/12 11:02:55;;;;;;;2.55;1.20;;;;;;;;;;5057123;28;20037;-83
2022/05/12 11:05:33;;;;;;;1.58;0.80;;;;;;;;;;5057074;28;20032;-85
2022/05/12 11:08:17;;;;;;;3.60;1.23;;;;;;;;;;5073552;28;20045;-83
2022/05/12 11:10:49;;;;;;;2.42;1.05;;;;;;;;;;5056999;28;20123;-87
2022/05/12 11:13:34;;;;;;;6.00;2.17;;;;;;;;;;5040918;28;20035;-80
2022/05/12 11:16:22;;;;;;;1.88;1.00;;;;;;;;;;5073525;28;20077;-83
2022/05/12 11:19:01;;;;;;;3.20;1.15;;;;;;;;;;5073519;28;20036;-78
2022/05/12 11:21:29;;;;;;;2.95;1.27;;;;;;;;;;5073686;28;20045;-85
2022/05/12 11:23:59;;;;;;;4.85;1.27;;;;;;;;;;5057325;28;20047;-84
2022/05/12 11:26:25;;;;;;;1.20;0.70;;;;;;;;;;5056952;28;20079;-86
2022/05/12 11:31:48;;;;;;;2.80;1.17;;;;;;;;;;5073237;28;20048;-79
2022/05/12 11:34:23;;;;;;;4.00;1.80;;;;;;;;;;5056631;28;20090;-81
2022/05/12 11:36:50;;;;;;;3.50;1.50;;;;;;;;;;5056556;28;20059;-80
2022/05/12 11:39:22;;;;;;;2.60;0.80;;;;;;;;;;5055354;28;20090;-83
2022/05/12 11:41:49;;;;;;;3.67;1.33;;;;;;;;;;5056646;28;20102;-83
2022/05/12 11:44:24;;;;;;;2.67;0.90;;;;;;;;;;5056919;28;20041;-83
2022/05/12 11:46:56;;;;;;;1.52;0.90;;;;;;;;;;5073026;28;20451;-83
2022/05/12 11:49:40;;;;;;;1.90;1.25;;;;;;;;;;5056175;28;20306;-79
2022/05/12 11:52:19;;;;;;;2.28;0.90;;;;;;;;;;5056176;28;20090;-80
2022/05/12 11:54:57;;;;;;;3.45;1.08;;;;;;;;;;5056358;28;20044;-82
2022/05/12 11:57:23;;;;;;;1.40;1.08;;;;;;;;;;5055802;28;20083;-85
2022/05/12 11:59:54;;;;;;;2.83;1.35;;;;;;;;;;5055915;28;20504;-79
2022/05/12 12:02:29;;;;;;;3.00;0.80;;;;;;;;;;5055821;28;20045;-86
2022/05/12 12:05:00;;;;;;;5.57;1.35;;;;;;;;;;5055914;28;20039;-79
2022/05/12 12:07:26;;;;;;;;;;;;;;;;;;5056505;28;20040;-86
2022/05/12 12:09:53;;;;;;;2.53;1.10;;;;;;;;;;5056096;28;20355;-80
2022/05/12 12:12:49;;;;;;;1.38;0.73;;;;;;;;;;5055532;28;20072;-83
2022/05/12 12:15:27;;;;;;;3.05;1.40;;;;;;;;;;5055476;28;20055;-82
2022/05/12 12:17:54;;;;;;;2.55;0.80;;;;;;;;;;5069972;28;20040;-83
2022/05/12 12:20:29;;;;;;;5.75;1.20;;;;;;;;;;5055004;28;20036;-82
2022/05/12 12:23:15;;;;;;;2.22;1.40;;;;;;;;;;5069678;28;20048;-82
2022/05/12 12:25:42;;;;;;;2.47;0.80;;;;;;;;;;5045982;28;20044;-80
2022/05/12 12:28:11;;;;;;;2.70;1.10;;;;;;;;;;5055870;28;20035;-82
2022/05/12 12:30:40;;;;;;;3.28;1.00;;;;;;;;;;5055286;28;20037;-82
2022/05/12 12:33:24;;;;;;;1.52;0.50;;;;;;;;;;5054993;28;20032;-87
2022/05/12 12:35:57;;;;;;;0.75;0.68;;;;;;;;;;5052764;28;20051;-86
2022/05/12 12:38:43;;;;;;;1.85;1.15;;;;;;;;;;5071693;28;20044;-80
2022/05/12 12:41:10;;;;;;;1.17;0.68;;;;;;;;;;5064210;28;20094;-81
2022/05/12 12:43:43;;;;;;;3.05;1.20;;;;;;;;;;5054387;28;20186;-82
2022/05/12 12:46:16;;;;;;;3.92;1.20;;;;;;;;;;5051514;28;20052;-82
2022/05/12 12:48:51;;;;;;;6.63;0.90;;;;;;;;;;5054635;28;20094;-80
2022/05/12 12:51:38;;;;;;;1.85;1.02;;;;;;;;;;5052942;28;20503;-86
2022/05/12 12:57:07;;;;;;;2.50;0.80;;;;;;;;;;5070467;28;20048;-78
2022/05/12 12:59:35;;;;;;;1.60;0.80;;;;;;;;;;5071367;28;20032;-80
2022/05/12 13:02:02;;;;;;;1.42;0.90;;;;;;;;;;5054309;28;20201;-86
2022/05/12 13:04:30;;;;;;;2.10;0.90;;;;;;;;;;5070860;28;20408;-79
2022/05/12 13:07:04;;;;;;;2.17;0.63;;;;;;;;;;5054432;28;20085;-77
2022/05/12 13:09:54;;;;;;;1.27;0.75;;;;;;;;;;5051753;28;20115;-86
2022/05/12 13:12:21;;;;;;;3.33;1.20;;;;;;;;;;5052815;28;20131;-86
2022/05/12 13:14:48;;;;;;;1.42;0.77;;;;;;;;;;5054480;28;20075;-79
2022/05/12 13:17:29;;;;;;;3.08;0.70;;;;;;;;;;5054483;28;20055;-85
2022/05/12 13:19:59;;;;;;;2.33;1.05;;;;;;;;;;5066073;28;20049;-81
2022/05/12 13:22:27;;;;;;;1.20;0.63;;;;;;;;;;5054094;28;20392;-80
2022/05/12 13:24:54;;;;;;;1.38;0.80;;;;;;;;;;5070454;28;20123;-81
2022/05/12 13:27:22;;;;;;;2.35;1.20;;;;;;;;;;5050382;28;20127;-85
2022/05/12 13:29:48;;;;;;;1.63;1.00;;;;;;;;;;5067167;28;20043;-82
2022/05/12 13:32:33;;;;;;;2.05;1.15;;;;;;;;;;5050894;28;20040;-80
2022/05/12 13:35:04;;;;;;;1.50;0.77;;;;;;;;;;5049019;28;20123;-81
2022/05/12 13:37:31;;;;;;;2.40;1.30;;;;;;;;;;5028944;28;20041;-80
2022/05/12 13:39:59;;;;;;;2.50;0.80;;;;;;;;;;5050471;28;20466;-91
2022/05/12 13:42:30;;;;;;;4.85;1.30;;;;;;;;;;5049660;28;20041;-85
2022/05/12 13:44:58;;;;;;;2.53;1.15;;;;;;;;;;5050465;28;20438;-89
2022/05/12 13:47:27;;;;;;;4.60;1.10;;;;;;;;;;5050205;28;20381;-85
2022/05/12 13:49:54;;;;;;;2.72;1.13;;;;;;;;;;5047935;28;20628;-80
2022/05/12 13:52:24;;;;;;;1.52;1.00;;;;;;;;;;5050712;28;20037;-83
2022/05/12 13:54:50;;;;;;;2.30;1.10;;;;;;;;;;5050081;28;20068;-81
2022/05/12 13:57:22;;;;;;;4.70;1.08;;;;;;;;;;5050389;28;20076;-82
2022/05/12 13:59:52;;;;;;;3.55;1.25;;;;;;;;;;5066587;28;20044;-81
2022/05/12 14:02:20;;;;;;;1.73;1.20;;;;;;;;;;5049099;28;20443;-87
2022/05/12 14:04:46;;;;;;;5.00;1.95;;;;;;;;;;5066775;28;20101;-81
2022/05/12 14:07:12;;;;;;;4.88;1.50;;;;;;;;;;5066242;28;20052;-83
2022/05/12 14:10:11;;;;;;;2.38;1.33;;;;;;;;;;5066585;28;20128;-81
2022/05/12 14:19:13;;;;;;;4.95;1.17;;;;;;;;;;5031762;28;20139;-84
2022/05/12 14:20:52;;;;;;;3.92;1.10;;;;;;;;;;5064357;28;20141;-85
2022/05/12 14:23:18;;;;;;;2.35;1.40;;;;;;;;;;5050317;28;20118;-85
2022/05/12 14:25:44;;;;;;;2.45;1.40;;;;;;;;;;5050458;28;20032;-87
2022/05/12 14:28:10;;;;;;;2.88;1.52;;;;;;;;;;5050262;28;20063;-84
2022/05/12 14:30:36;;;;;;;2.60;1.58;;;;;;;;;;5049577;28;20125;-83
2022/05/12 14:33:02;;;;;;;2.22;1.20;;;;;;;;;;5066408;28;20076;-85
2022/05/12 14:35:29;;;;;;;2.90;1.50;;;;;;;;;;5066492;28;20125;-85
2022/05/12 14:37:55;;;;;;;4.43;1.73;;;;;;;;;;5066727;28;20055;-81
2022/05/12 14:40:23;;;;;;;3.72;1.50;;;;;;;;;;5066299;28;20068;-78
2022/05/12 14:42:50;;;;;;;3.58;1.63;;;;;;;;;;5033334;28;20040;-87
2022/05/12 14:45:17;;;;;;;3.00;1.20;;;;;;;;;;5050216;28;20095;-80
2022/05/12 14:47:46;;;;;;;1.20;1.10;;;;;;;;;;5049724;28;20071;-83
2022/05/12 14:50:13;;;;;;;2.55;1.35;;;;;;;;;;5051731;28;20051;-80
2022/05/12 14:52:40;;;;;;;3.08;1.60;;;;;;;;;;5068025;28;20045;-83
2022/05/12 14:55:07;;;;;;;3.92;1.48;;;;;;;;;;5054222;28;20080;-87
2022/05/12 14:57:33;;;;;;;2.90;1.33;;;;;;;;;;5054236;28;20049;-87
2022/05/12 15:00:00;;;;;;;2.72;1.08;;;;;;;;;;5050412;28;20076;-87
2022/05/12 15:02:32;;;;;;;2.42;1.05;;;;;;;;;;5049868;28;20036;-86
2022/05/12 15:04:58;;;;;;;2.88;1.30;;;;;;;;;;5049715;28;20403;-80
2022/05/12 15:07:25;;;;;;;2.88;1.55;;;;;;;;;;5066181;28;20447;-83
2022/05/12 15:09:53;;;;;;;2.55;1.20;;;;;;;;;;5066522;28;20044;-86
2022/05/12 15:12:19;;;;;;;4.45;1.33;;;;;;;;;;5050403;28;20081;-85
2022/05/12 15:14:45;;;;;;;3.10;1.30;;;;;;;;;;5053117;28;20127;-86
2022/05/12 15:17:16;;;;;;;2.45;1.40;;;;;;;;;;5037980;28;20507;-85
2022/05/12 15:19:42;;;;;;;;;;;;;;;;;;5054066;28;20110;-84
2022/05/12 15:22:09;;;;;;;2.50;0.90;;;;;;;;;;5069895;28;19957;-85
2022/05/12 15:24:35;;;;;;;3.88;1.48;;;;;;;;;;5053215;28;20037;-82
2022/05/12 15:27:02;;;;;;;2.75;1.13;;;;;;;;;;5036872;28;20385;-84